createdAt,value
2017-07-12T00:07:15.560Z,1000.5
2017-07-12T00:17:24.948Z,1000.4
2017-07-12T00:27:34.152Z,1000.3
2017-07-12T00:37:43.431Z,1000.1
2017-07-12T00:47:52.623Z,1000.2
2017-07-12T00:58:01.910Z,1000.1
2017-07-12T01:08:11.234Z,1000.1
2017-07-12T01:18:20.516Z,999.7
2017-07-12T01:28:29.859Z,998.9
2017-07-12T01:38:39.238Z,998
2017-07-12T01:48:48.776Z,997.5
2017-07-12T01:58:58.098Z,997.3
2017-07-12T02:09:07.559Z,997.1
2017-07-12T02:19:16.991Z,996.8
2017-07-12T02:29:26.384Z,996.5
2017-07-12T02:39:35.828Z,996.4
2017-07-12T02:49:45.340Z,996.3
2017-07-12T02:59:54.828Z,996.1
2017-07-12T03:10:04.230Z,996.2
2017-07-12T03:20:13.644Z,996.4
2017-07-12T03:30:23.070Z,996.2
2017-07-12T03:40:32.499Z,997
2017-07-12T03:50:41.940Z,996.5
2017-07-12T04:00:51.444Z,996.3
2017-07-12T04:11:01.067Z,996.8
2017-07-12T04:21:10.518Z,997
2017-07-12T04:31:20.010Z,997.2
2017-07-12T04:41:29.513Z,997.5
2017-07-12T04:51:39.252Z,997.9
2017-07-12T05:01:48.492Z,998.2
2017-07-12T05:11:57.851Z,999.5
2017-07-12T05:22:07.162Z,1000.6
2017-07-12T05:32:16.383Z,997.8
2017-07-12T05:42:25.585Z,997.8
2017-07-12T05:52:34.798Z,997.6
2017-07-12T06:02:44.141Z,997.6
2017-07-12T06:12:53.612Z,997.4
2017-07-12T06:23:02.737Z,997.4
2017-07-12T06:33:11.905Z,997.3
2017-07-12T06:43:21.036Z,997.3
2017-07-12T06:53:30.154Z,997.2
2017-07-12T07:03:39.354Z,997.2
2017-07-12T07:13:48.482Z,997
2017-07-12T07:23:57.753Z,996.7
2017-07-12T07:34:07.089Z,996.5
2017-07-12T07:44:16.418Z,996.4
2017-07-12T07:54:25.731Z,997.7
2017-07-12T08:04:35.041Z,997.5
2017-07-12T08:14:44.513Z,996.4
2017-07-12T08:24:53.962Z,997.1
2017-07-12T08:35:02.951Z,998.3
2017-07-12T08:45:12.111Z,999.1
2017-07-12T08:55:21.159Z,997.9
2017-07-12T09:05:30.420Z,996.8
2017-07-12T09:15:39.703Z,995.7
2017-07-12T09:35:58.183Z,994.8
2017-07-12T09:46:07.333Z,995
2017-07-12T09:56:16.671Z,994.7
2017-07-12T10:06:25.894Z,997.3
2017-07-12T10:16:35.021Z,998.1
2017-07-12T10:26:44.103Z,996.4
2017-07-12T10:36:53.290Z,993.5
2017-07-12T10:47:02.550Z,993.4
2017-07-12T10:57:11.895Z,993.7
2017-07-12T11:07:21.238Z,994.9
2017-07-12T11:17:30.287Z,994.7
2017-07-12T11:27:39.487Z,993.2
2017-07-12T11:37:48.805Z,993.8
2017-07-12T11:47:58.035Z,993.6
2017-07-12T11:58:07.235Z,994.4
2017-07-12T12:08:16.404Z,995.4
2017-07-12T12:18:25.527Z,997.4
2017-07-12T12:28:34.643Z,995.9
2017-07-12T12:38:43.847Z,994.4
2017-07-12T12:48:53.203Z,994.7
2017-07-12T12:59:02.620Z,994.7
2017-07-12T13:09:11.930Z,994.7
2017-07-12T13:19:21.693Z,995.4
2017-07-12T13:29:30.720Z,996.3
2017-07-12T13:39:40.058Z,998.1
2017-07-12T13:49:49.306Z,999.4
2017-07-12T13:59:58.444Z,1000.3
2017-07-12T14:10:07.440Z,999.7
2017-07-12T14:20:16.335Z,999.7
2017-07-12T14:30:24.601Z,999.6
2017-07-12T14:40:33.537Z,998.4
2017-07-12T14:50:42.402Z,1000
2017-07-12T15:00:51.246Z,1000.4
2017-07-12T15:11:09.277Z,1000.3
2017-07-12T15:21:09.579Z,1000
2017-07-12T15:31:19.053Z,1002
2017-07-12T15:41:28.392Z,1005.2
2017-07-12T15:51:37.637Z,1004
2017-07-12T16:01:46.857Z,1004.7
2017-07-12T16:11:55.909Z,1001.6
2017-07-12T16:22:05.183Z,1004.1
2017-07-12T16:32:14.223Z,1004
2017-07-12T16:42:23.093Z,1004.2
2017-07-12T16:52:32.145Z,1004.5
2017-07-12T17:02:41.245Z,1004.5
2017-07-12T17:12:50.460Z,1005.1
2017-07-12T17:22:58.931Z,1005.2
2017-07-12T17:33:07.480Z,1005.5
2017-07-12T17:43:16.247Z,1005.8
2017-07-12T17:53:25.119Z,1006
2017-07-12T18:03:34.037Z,1006.4
2017-07-12T18:13:43.205Z,1006.5
2017-07-12T18:23:52.377Z,1006.8
2017-07-12T18:34:01.900Z,1006.9
2017-07-12T18:44:10.975Z,1007.1
2017-07-12T18:54:20.363Z,1007.5
2017-07-12T19:04:29.782Z,1007.6
2017-07-12T19:14:39.328Z,1007.8
2017-07-12T19:24:48.755Z,1007.9
2017-07-12T19:34:58.378Z,1008.1
2017-07-12T19:45:07.952Z,1008.3
2017-07-12T19:55:17.698Z,1008.6
2017-07-12T20:05:27.540Z,1008.6
2017-07-12T20:15:37.302Z,1008.8
2017-07-12T20:25:47.007Z,1008.9
2017-07-12T20:35:56.816Z,1009
2017-07-12T20:46:06.645Z,1009.1
2017-07-12T20:56:16.493Z,1009.4
2017-07-12T21:06:26.418Z,1009.5
2017-07-12T21:16:36.426Z,1009.8
2017-07-12T21:26:46.403Z,1009.8
2017-07-12T21:36:56.493Z,1009.9
2017-07-12T21:47:06.415Z,1010.2
2017-07-12T21:57:16.473Z,1010.3
2017-07-12T22:07:26.651Z,1010.4
2017-07-12T22:17:36.723Z,1010.5
2017-07-12T22:27:46.901Z,1010.6
2017-07-12T22:37:57.070Z,1010.7
2017-07-12T22:48:07.244Z,1010.8
2017-07-12T22:58:17.531Z,1010.8
2017-07-12T23:08:27.773Z,1011
2017-07-12T23:18:38.054Z,1011
2017-07-12T23:28:48.322Z,1011.1
2017-07-12T23:38:58.601Z,1011.3
2017-07-12T23:49:08.834Z,1011.3
2017-07-12T23:59:19.122Z,1011.4
